sensor_id;sensor_type;location;lat;lon;timestamp;temperature;humidity
53268;DHT22;39156;51.176;6.738;2022-09-12T00:01:18;14.90;62.20
53268;DHT22;39156;51.176;6.738;2022-09-12T00:03:45;14.90;62.30
53268;DHT22;39156;51.176;6.738;2022-09-12T00:06:19;14.90;62.30
53268;DHT22;39156;51.176;6.738;2022-09-12T00:08:47;14.80;62.30
53268;DHT22;39156;51.176;6.738;2022-09-12T00:11:13;14.80;62.30
53268;DHT22;39156;51.176;6.738;2022-09-12T00:13:39;14.80;62.30
53268;DHT22;39156;51.176;6.738;2022-09-12T00:16:06;14.80;62.30
53268;DHT22;39156;51.176;6.738;2022-09-12T00:18:31;14.70;62.30
53268;DHT22;39156;51.176;6.738;2022-09-12T00:21:00;14.70;62.30
53268;DHT22;39156;51.176;6.738;2022-09-12T00:23:29;14.70;62.30
53268;DHT22;39156;51.176;6.738;2022-09-12T00:25:55;14.70;62.50
53268;DHT22;39156;51.176;6.738;2022-09-12T00:28:21;14.70;62.50
53268;DHT22;39156;51.176;6.738;2022-09-12T00:30:47;14.70;62.70
53268;DHT22;39156;51.176;6.738;2022-09-12T00:33:14;14.60;62.80
53268;DHT22;39156;51.176;6.738;2022-09-12T00:35:44;14.70;62.90
53268;DHT22;39156;51.176;6.738;2022-09-12T00:38:15;14.70;63.00
53268;DHT22;39156;51.176;6.738;2022-09-12T00:40:41;14.70;62.90
53268;DHT22;39156;51.176;6.738;2022-09-12T00:43:41;14.70;62.90
53268;DHT22;39156;51.176;6.738;2022-09-12T00:46:02;14.70;63.00
53268;DHT22;39156;51.176;6.738;2022-09-12T00:48:49;14.60;62.90
53268;DHT22;39156;51.176;6.738;2022-09-12T00:51:16;14.60;62.90
53268;DHT22;39156;51.176;6.738;2022-09-12T00:53:42;14.60;62.80
53268;DHT22;39156;51.176;6.738;2022-09-12T00:56:08;14.50;62.70
53268;DHT22;39156;51.176;6.738;2022-09-12T00:58:35;14.60;62.80
53268;DHT22;39156;51.176;6.738;2022-09-12T01:01:05;14.50;62.70
53268;DHT22;39156;51.176;6.738;2022-09-12T01:03:31;14.50;62.70
53268;DHT22;39156;51.176;6.738;2022-09-12T01:05:58;14.50;62.80
53268;DHT22;39156;51.176;6.738;2022-09-12T01:08:29;14.50;62.80
53268;DHT22;39156;51.176;6.738;2022-09-12T01:10:56;14.50;63.00
53268;DHT22;39156;51.176;6.738;2022-09-12T01:13:22;14.50;62.80
53268;DHT22;39156;51.176;6.738;2022-09-12T01:15:47;14.40;62.70
53268;DHT22;39156;51.176;6.738;2022-09-12T01:18:19;14.40;62.70
53268;DHT22;39156;51.176;6.738;2022-09-12T01:31:28;14.40;62.80
53268;DHT22;39156;51.176;6.738;2022-09-12T01:39:52;14.20;62.90
53268;DHT22;39156;51.176;6.738;2022-09-12T01:42:25;14.20;63.00
53268;DHT22;39156;51.176;6.738;2022-09-12T01:45:15;14.20;63.60
53268;DHT22;39156;51.176;6.738;2022-09-12T01:47:46;14.20;63.00
53268;DHT22;39156;51.176;6.738;2022-09-12T01:50:16;14.70;63.30
53268;DHT22;39156;51.176;6.738;2022-09-12T01:52:55;14.20;62.90
53268;DHT22;39156;51.176;6.738;2022-09-12T01:55:24;14.10;63.00
53268;DHT22;39156;51.176;6.738;2022-09-12T01:57:57;14.20;63.20
53268;DHT22;39156;51.176;6.738;2022-09-12T02:00:27;14.10;63.40
53268;DHT22;39156;51.176;6.738;2022-09-12T02:02:57;14.10;63.50
53268;DHT22;39156;51.176;6.738;2022-09-12T02:05:31;14.10;63.70
53268;DHT22;39156;51.176;6.738;2022-09-12T02:10:33;14.10;63.70
53268;DHT22;39156;51.176;6.738;2022-09-12T02:13:18;14.10;63.70
53268;DHT22;39156;51.176;6.738;2022-09-12T02:15:49;14.10;64.00
53268;DHT22;39156;51.176;6.738;2022-09-12T02:18:17;14.10;64.10
53268;DHT22;39156;51.176;6.738;2022-09-12T02:20:46;14.10;64.10
53268;DHT22;39156;51.176;6.738;2022-09-12T02:23:15;14.10;64.00
53268;DHT22;39156;51.176;6.738;2022-09-12T02:25:45;14.10;63.90
53268;DHT22;39156;51.176;6.738;2022-09-12T02:28:17;14.00;63.50
53268;DHT22;39156;51.176;6.738;2022-09-12T02:30:53;14.10;63.90
53268;DHT22;39156;51.176;6.738;2022-09-12T02:33:29;14.10;63.90
53268;DHT22;39156;51.176;6.738;2022-09-12T02:36:02;14.00;63.80
53268;DHT22;39156;51.176;6.738;2022-09-12T02:38:42;14.10;64.00
53268;DHT22;39156;51.176;6.738;2022-09-12T02:41:10;14.00;64.60
53268;DHT22;39156;51.176;6.738;2022-09-12T02:43:36;14.00;62.70
53268;DHT22;39156;51.176;6.738;2022-09-12T02:46:04;14.10;62.80
53268;DHT22;39156;51.176;6.738;2022-09-12T02:48:35;14.00;62.20
53268;DHT22;39156;51.176;6.738;2022-09-12T02:51:02;14.00;61.90
53268;DHT22;39156;51.176;6.738;2022-09-12T02:53:28;14.00;62.50
53268;DHT22;39156;51.176;6.738;2022-09-12T02:55:54;14.00;62.90
53268;DHT22;39156;51.176;6.738;2022-09-12T02:58:21;14.00;63.40
53268;DHT22;39156;51.176;6.738;2022-09-12T03:06:32;13.90;62.40
53268;DHT22;39156;51.176;6.738;2022-09-12T03:09:05;13.90;63.10
53268;DHT22;39156;51.176;6.738;2022-09-12T03:11:47;13.90;63.80
53268;DHT22;39156;51.176;6.738;2022-09-12T03:19:57;13.80;63.40
53268;DHT22;39156;51.176;6.738;2022-09-12T03:22:31;13.80;63.90
53268;DHT22;39156;51.176;6.738;2022-09-12T03:25:18;13.80;64.50
53268;DHT22;39156;51.176;6.738;2022-09-12T03:27:47;13.80;63.60
53268;DHT22;39156;51.176;6.738;2022-09-12T03:30:24;13.70;63.50
53268;DHT22;39156;51.176;6.738;2022-09-12T03:32:51;13.80;63.40
53268;DHT22;39156;51.176;6.738;2022-09-12T03:35:18;13.70;62.30
53268;DHT22;39156;51.176;6.738;2022-09-12T03:37:47;13.80;62.80
53268;DHT22;39156;51.176;6.738;2022-09-12T03:40:13;13.70;63.50
53268;DHT22;39156;51.176;6.738;2022-09-12T03:42:39;13.70;64.10
53268;DHT22;39156;51.176;6.738;2022-09-12T03:45:05;13.70;64.20
53268;DHT22;39156;51.176;6.738;2022-09-12T03:47:31;13.70;64.20
53268;DHT22;39156;51.176;6.738;2022-09-12T03:49:57;13.70;64.70
53268;DHT22;39156;51.176;6.738;2022-09-12T03:52:23;13.70;65.00
53268;DHT22;39156;51.176;6.738;2022-09-12T03:54:48;13.70;65.30
53268;DHT22;39156;51.176;6.738;2022-09-12T03:57:14;13.70;65.20
53268;DHT22;39156;51.176;6.738;2022-09-12T03:59:39;13.60;65.20
53268;DHT22;39156;51.176;6.738;2022-09-12T04:02:05;13.70;65.30
53268;DHT22;39156;51.176;6.738;2022-09-12T04:04:31;13.60;64.90
53268;DHT22;39156;51.176;6.738;2022-09-12T04:06:56;13.60;64.80
53268;DHT22;39156;51.176;6.738;2022-09-12T04:09:22;13.60;65.10
53268;DHT22;39156;51.176;6.738;2022-09-12T04:11:48;13.60;64.40
53268;DHT22;39156;51.176;6.738;2022-09-12T04:14:13;13.50;64.60
53268;DHT22;39156;51.176;6.738;2022-09-12T04:16:39;13.60;65.50
53268;DHT22;39156;51.176;6.738;2022-09-12T04:19:04;13.60;65.10
53268;DHT22;39156;51.176;6.738;2022-09-12T04:21:30;13.60;65.20
53268;DHT22;39156;51.176;6.738;2022-09-12T04:23:56;13.60;65.10
53268;DHT22;39156;51.176;6.738;2022-09-12T04:26:21;13.50;64.80
53268;DHT22;39156;51.176;6.738;2022-09-12T04:28:47;13.50;64.60
53268;DHT22;39156;51.176;6.738;2022-09-12T04:31:14;13.60;64.30
53268;DHT22;39156;51.176;6.738;2022-09-12T04:33:42;13.50;64.20
53268;DHT22;39156;51.176;6.738;2022-09-12T04:36:10;13.50;64.50
53268;DHT22;39156;51.176;6.738;2022-09-12T04:38:41;13.60;64.70
53268;DHT22;39156;51.176;6.738;2022-09-12T04:41:15;13.50;64.50
53268;DHT22;39156;51.176;6.738;2022-09-12T04:43:52;13.50;64.40
53268;DHT22;39156;51.176;6.738;2022-09-12T04:46:29;13.50;64.20
53268;DHT22;39156;51.176;6.738;2022-09-12T04:48:57;13.50;64.10
53268;DHT22;39156;51.176;6.738;2022-09-12T04:51:24;13.50;64.10
53268;DHT22;39156;51.176;6.738;2022-09-12T04:54:01;13.50;64.20
53268;DHT22;39156;51.176;6.738;2022-09-12T04:56:28;13.50;64.40
53268;DHT22;39156;51.176;6.738;2022-09-12T04:58:55;13.50;64.80
53268;DHT22;39156;51.176;6.738;2022-09-12T05:01:22;13.40;64.60
53268;DHT22;39156;51.176;6.738;2022-09-12T05:03:48;13.50;64.80
53268;DHT22;39156;51.176;6.738;2022-09-12T05:06:18;13.50;64.80
53268;DHT22;39156;51.176;6.738;2022-09-12T05:08:45;13.50;65.10
53268;DHT22;39156;51.176;6.738;2022-09-12T05:11:22;13.60;65.30
53268;DHT22;39156;51.176;6.738;2022-09-12T05:13:49;13.60;65.40
53268;DHT22;39156;51.176;6.738;2022-09-12T05:16:15;13.60;65.00
53268;DHT22;39156;51.176;6.738;2022-09-12T05:18:41;13.60;65.00
53268;DHT22;39156;51.176;6.738;2022-09-12T05:21:10;13.60;65.10
53268;DHT22;39156;51.176;6.738;2022-09-12T05:23:37;13.70;65.10
53268;DHT22;39156;51.176;6.738;2022-09-12T05:26:03;13.70;65.40
53268;DHT22;39156;51.176;6.738;2022-09-12T05:28:32;13.80;65.60
53268;DHT22;39156;51.176;6.738;2022-09-12T05:31:06;13.80;65.60
53268;DHT22;39156;51.176;6.738;2022-09-12T05:33:42;13.80;66.40
53268;DHT22;39156;51.176;6.738;2022-09-12T05:36:10;13.90;65.70
53268;DHT22;39156;51.176;6.738;2022-09-12T05:38:37;13.90;65.70
53268;DHT22;39156;51.176;6.738;2022-09-12T05:41:11;14.00;65.70
53268;DHT22;39156;51.176;6.738;2022-09-12T05:43:39;14.10;65.80
53268;DHT22;39156;51.176;6.738;2022-09-12T05:46:10;14.20;65.90
53268;DHT22;39156;51.176;6.738;2022-09-12T05:48:38;14.30;65.90
53268;DHT22;39156;51.176;6.738;2022-09-12T05:51:05;14.30;66.00
53268;DHT22;39156;51.176;6.738;2022-09-12T05:53:33;14.50;66.00
53268;DHT22;39156;51.176;6.738;2022-09-12T05:56:01;14.50;65.90
53268;DHT22;39156;51.176;6.738;2022-09-12T05:58:34;14.60;65.90
53268;DHT22;39156;51.176;6.738;2022-09-12T06:01:10;14.70;66.00
53268;DHT22;39156;51.176;6.738;2022-09-12T06:03:47;14.80;66.30
53268;DHT22;39156;51.176;6.738;2022-09-12T06:06:15;14.90;66.30
53268;DHT22;39156;51.176;6.738;2022-09-12T06:08:44;15.00;66.10
53268;DHT22;39156;51.176;6.738;2022-09-12T06:11:12;15.10;66.10
53268;DHT22;39156;51.176;6.738;2022-09-12T06:13:39;15.20;66.10
53268;DHT22;39156;51.176;6.738;2022-09-12T06:16:10;15.30;66.10
53268;DHT22;39156;51.176;6.738;2022-09-12T06:18:38;15.30;66.00
53268;DHT22;39156;51.176;6.738;2022-09-12T06:21:05;15.40;65.80
53268;DHT22;39156;51.176;6.738;2022-09-12T06:23:32;15.50;65.80
53268;DHT22;39156;51.176;6.738;2022-09-12T06:25:58;15.50;65.70
53268;DHT22;39156;51.176;6.738;2022-09-12T06:28:24;15.60;66.50
53268;DHT22;39156;51.176;6.738;2022-09-12T06:30:50;15.70;65.60
53268;DHT22;39156;51.176;6.738;2022-09-12T06:33:16;15.80;65.60
53268;DHT22;39156;51.176;6.738;2022-09-12T06:35:42;15.90;65.50
53268;DHT22;39156;51.176;6.738;2022-09-12T06:38:08;15.90;65.50
53268;DHT22;39156;51.176;6.738;2022-09-12T06:40:34;16.10;65.50
53268;DHT22;39156;51.176;6.738;2022-09-12T06:43:00;16.10;65.40
53268;DHT22;39156;51.176;6.738;2022-09-12T06:45:26;16.20;65.30
53268;DHT22;39156;51.176;6.738;2022-09-12T06:47:51;16.40;65.20
53268;DHT22;39156;51.176;6.738;2022-09-12T06:50:17;16.50;65.10
53268;DHT22;39156;51.176;6.738;2022-09-12T06:52:42;16.60;65.10
53268;DHT22;39156;51.176;6.738;2022-09-12T06:55:08;16.80;65.30
53268;DHT22;39156;51.176;6.738;2022-09-12T06:57:34;17.10;65.50
53268;DHT22;39156;51.176;6.738;2022-09-12T07:00:03;17.30;65.30
53268;DHT22;39156;51.176;6.738;2022-09-12T07:02:30;17.60;65.00
53268;DHT22;39156;51.176;6.738;2022-09-12T07:04:55;17.80;64.90
53268;DHT22;39156;51.176;6.738;2022-09-12T07:07:21;18.00;64.80
53268;DHT22;39156;51.176;6.738;2022-09-12T07:09:47;18.20;64.20
53268;DHT22;39156;51.176;6.738;2022-09-12T07:12:13;18.40;64.20
53268;DHT22;39156;51.176;6.738;2022-09-12T07:14:39;18.60;64.10
53268;DHT22;39156;51.176;6.738;2022-09-12T07:17:04;18.80;63.80
53268;DHT22;39156;51.176;6.738;2022-09-12T07:19:31;19.00;63.20
53268;DHT22;39156;51.176;6.738;2022-09-12T07:21:56;19.20;63.00
53268;DHT22;39156;51.176;6.738;2022-09-12T07:24:22;19.30;62.50
53268;DHT22;39156;51.176;6.738;2022-09-12T07:26:48;19.30;62.20
53268;DHT22;39156;51.176;6.738;2022-09-12T07:29:14;19.40;62.20
53268;DHT22;39156;51.176;6.738;2022-09-12T07:31:40;19.50;62.10
53268;DHT22;39156;51.176;6.738;2022-09-12T07:34:06;19.50;62.10
53268;DHT22;39156;51.176;6.738;2022-09-12T07:36:32;19.60;62.00
53268;DHT22;39156;51.176;6.738;2022-09-12T07:38:58;19.70;62.30
53268;DHT22;39156;51.176;6.738;2022-09-12T07:41:25;19.70;62.20
53268;DHT22;39156;51.176;6.738;2022-09-12T07:43:52;19.90;62.40
53268;DHT22;39156;51.176;6.738;2022-09-12T07:46:19;20.10;62.40
53268;DHT22;39156;51.176;6.738;2022-09-12T07:48:49;20.30;62.30
53268;DHT22;39156;51.176;6.738;2022-09-12T07:51:19;20.50;62.50
53268;DHT22;39156;51.176;6.738;2022-09-12T07:53:45;20.70;61.20
53268;DHT22;39156;51.176;6.738;2022-09-12T07:56:11;20.90;61.10
53268;DHT22;39156;51.176;6.738;2022-09-12T07:58:38;21.00;61.60
53268;DHT22;39156;51.176;6.738;2022-09-12T08:01:05;21.20;61.60
53268;DHT22;39156;51.176;6.738;2022-09-12T08:03:34;21.30;61.80
53268;DHT22;39156;51.176;6.738;2022-09-12T08:06:04;21.40;61.60
53268;DHT22;39156;51.176;6.738;2022-09-12T08:08:33;21.50;60.80
53268;DHT22;39156;51.176;6.738;2022-09-12T08:10:59;21.60;60.10
53268;DHT22;39156;51.176;6.738;2022-09-12T08:13:26;21.60;58.70
53268;DHT22;39156;51.176;6.738;2022-09-12T08:15:56;21.60;59.00
53268;DHT22;39156;51.176;6.738;2022-09-12T08:18:25;21.60;58.30
53268;DHT22;39156;51.176;6.738;2022-09-12T08:20:55;21.70;59.00
53268;DHT22;39156;51.176;6.738;2022-09-12T08:23:25;21.80;60.10
53268;DHT22;39156;51.176;6.738;2022-09-12T08:25:56;22.00;60.40
53268;DHT22;39156;51.176;6.738;2022-09-12T08:28:26;22.30;61.80
53268;DHT22;39156;51.176;6.738;2022-09-12T08:30:59;22.60;61.90
53268;DHT22;39156;51.176;6.738;2022-09-12T08:33:25;23.00;62.30
53268;DHT22;39156;51.176;6.738;2022-09-12T08:38:35;23.80;61.40
53268;DHT22;39156;51.176;6.738;2022-09-12T08:46:35;25.10;61.10
53268;DHT22;39156;51.176;6.738;2022-09-12T08:49:07;25.60;61.10
53268;DHT22;39156;51.176;6.738;2022-09-12T08:51:36;26.10;61.40
53268;DHT22;39156;51.176;6.738;2022-09-12T08:54:03;26.60;61.70
53268;DHT22;39156;51.176;6.738;2022-09-12T08:56:30;27.10;61.60
53268;DHT22;39156;51.176;6.738;2022-09-12T08:58:59;27.50;59.10
53268;DHT22;39156;51.176;6.738;2022-09-12T09:01:32;27.90;62.10
53268;DHT22;39156;51.176;6.738;2022-09-12T09:12:27;29.30;55.40
53268;DHT22;39156;51.176;6.738;2022-09-12T09:17:53;29.60;52.70
53268;DHT22;39156;51.176;6.738;2022-09-12T09:22:51;29.80;54.50
53268;DHT22;39156;51.176;6.738;2022-09-12T09:25:25;29.80;53.20
53268;DHT22;39156;51.176;6.738;2022-09-12T09:28:01;29.70;53.80
53268;DHT22;39156;51.176;6.738;2022-09-12T09:30:30;29.60;55.00
53268;DHT22;39156;51.176;6.738;2022-09-12T09:32:57;29.50;54.40
53268;DHT22;39156;51.176;6.738;2022-09-12T09:35:34;29.40;54.10
53268;DHT22;39156;51.176;6.738;2022-09-12T09:38:07;29.40;53.10
53268;DHT22;39156;51.176;6.738;2022-09-12T09:40:50;29.40;52.60
53268;DHT22;39156;51.176;6.738;2022-09-12T09:43:23;29.40;52.60
53268;DHT22;39156;51.176;6.738;2022-09-12T09:45:51;29.40;50.70
53268;DHT22;39156;51.176;6.738;2022-09-12T09:48:18;29.50;52.10
53268;DHT22;39156;51.176;6.738;2022-09-12T09:50:47;29.50;53.70
53268;DHT22;39156;51.176;6.738;2022-09-12T09:53:21;29.60;51.90
53268;DHT22;39156;51.176;6.738;2022-09-12T09:55:50;29.60;52.90
53268;DHT22;39156;51.176;6.738;2022-09-12T09:58:31;29.70;54.30
53268;DHT22;39156;51.176;6.738;2022-09-12T10:01:02;29.80;49.60
53268;DHT22;39156;51.176;6.738;2022-09-12T10:03:30;29.80;51.20
53268;DHT22;39156;51.176;6.738;2022-09-12T10:08:45;30.00;52.50
53268;DHT22;39156;51.176;6.738;2022-09-12T10:16:26;30.40;50.90
53268;DHT22;39156;51.176;6.738;2022-09-12T10:18:54;30.50;55.80
53268;DHT22;39156;51.176;6.738;2022-09-12T10:21:26;30.60;51.70
53268;DHT22;39156;51.176;6.738;2022-09-12T10:27:04;30.70;48.30
53268;DHT22;39156;51.176;6.738;2022-09-12T10:29:32;30.70;50.20
53268;DHT22;39156;51.176;6.738;2022-09-12T10:32:03;30.60;50.70
53268;DHT22;39156;51.176;6.738;2022-09-12T10:34:42;30.50;50.60
53268;DHT22;39156;51.176;6.738;2022-09-12T10:37:14;30.20;45.10
53268;DHT22;39156;51.176;6.738;2022-09-12T10:39:47;29.90;45.10
53268;DHT22;39156;51.176;6.738;2022-09-12T10:42:15;29.60;46.60
53268;DHT22;39156;51.176;6.738;2022-09-12T10:44:41;29.30;47.00
53268;DHT22;39156;51.176;6.738;2022-09-12T10:47:18;29.00;46.50
53268;DHT22;39156;51.176;6.738;2022-09-12T10:49:45;28.70;46.60
53268;DHT22;39156;51.176;6.738;2022-09-12T10:52:15;28.40;45.90
53268;DHT22;39156;51.176;6.738;2022-09-12T10:54:42;28.20;48.60
53268;DHT22;39156;51.176;6.738;2022-09-12T11:02:29;27.60;43.80
53268;DHT22;39156;51.176;6.738;2022-09-12T11:05:19;27.40;46.00
53268;DHT22;39156;51.176;6.738;2022-09-12T11:07:56;27.30;44.30
53268;DHT22;39156;51.176;6.738;2022-09-12T11:16:08;26.80;45.90
53268;DHT22;39156;51.176;6.738;2022-09-12T11:18:52;26.70;44.00
53268;DHT22;39156;51.176;6.738;2022-09-12T11:35:25;26.20;46.10
53268;DHT22;39156;51.176;6.738;2022-09-12T11:40:49;26.10;45.70
53268;DHT22;39156;51.176;6.738;2022-09-12T11:43:22;26.00;46.00
53268;DHT22;39156;51.176;6.738;2022-09-12T11:45:52;26.00;45.50
53268;DHT22;39156;51.176;6.738;2022-09-12T11:48:23;25.90;46.30
53268;DHT22;39156;51.176;6.738;2022-09-12T11:50:50;25.90;48.50
53268;DHT22;39156;51.176;6.738;2022-09-12T11:53:23;25.90;46.90
53268;DHT22;39156;51.176;6.738;2022-09-12T11:56:24;25.90;47.70
53268;DHT22;39156;51.176;6.738;2022-09-12T11:58:45;25.80;43.00
53268;DHT22;39156;51.176;6.738;2022-09-12T12:01:19;25.80;44.60
53268;DHT22;39156;51.176;6.738;2022-09-12T12:03:46;25.80;45.70
53268;DHT22;39156;51.176;6.738;2022-09-12T12:06:17;25.70;46.20
53268;DHT22;39156;51.176;6.738;2022-09-12T12:08:46;25.70;46.30
53268;DHT22;39156;51.176;6.738;2022-09-12T12:11:13;25.60;44.60
53268;DHT22;39156;51.176;6.738;2022-09-12T12:13:44;25.60;45.10
53268;DHT22;39156;51.176;6.738;2022-09-12T12:18:39;25.60;44.20
53268;DHT22;39156;51.176;6.738;2022-09-12T12:21:27;25.70;44.90
53268;DHT22;39156;51.176;6.738;2022-09-12T12:24:08;25.60;44.40
53268;DHT22;39156;51.176;6.738;2022-09-12T12:29:02;25.70;45.20
53268;DHT22;39156;51.176;6.738;2022-09-12T12:31:29;25.70;45.80
53268;DHT22;39156;51.176;6.738;2022-09-12T12:33:59;25.80;45.10
53268;DHT22;39156;51.176;6.738;2022-09-12T12:38:58;25.80;46.20
53268;DHT22;39156;51.176;6.738;2022-09-12T12:43:50;25.80;44.90
53268;DHT22;39156;51.176;6.738;2022-09-12T12:46:25;25.80;43.90
53268;DHT22;39156;51.176;6.738;2022-09-12T12:54:00;25.70;43.40
53268;DHT22;39156;51.176;6.738;2022-09-12T12:56:35;25.70;45.00
53268;DHT22;39156;51.176;6.738;2022-09-12T12:59:10;25.70;45.00
53268;DHT22;39156;51.176;6.738;2022-09-12T13:01:43;25.70;46.00
53268;DHT22;39156;51.176;6.738;2022-09-12T13:04:12;25.70;45.10
53268;DHT22;39156;51.176;6.738;2022-09-12T13:06:40;25.70;44.40
53268;DHT22;39156;51.176;6.738;2022-09-12T13:11:46;25.70;45.70
53268;DHT22;39156;51.176;6.738;2022-09-12T13:14:33;25.70;45.30
53268;DHT22;39156;51.176;6.738;2022-09-12T13:17:03;25.70;44.80
53268;DHT22;39156;51.176;6.738;2022-09-12T13:19:31;25.70;44.90
53268;DHT22;39156;51.176;6.738;2022-09-12T13:21:58;25.70;44.70
53268;DHT22;39156;51.176;6.738;2022-09-12T13:24:28;25.70;45.40
53268;DHT22;39156;51.176;6.738;2022-09-12T13:26:53;25.70;45.70
53268;DHT22;39156;51.176;6.738;2022-09-12T13:29:20;25.70;45.00
53268;DHT22;39156;51.176;6.738;2022-09-12T13:31:48;25.80;45.10
53268;DHT22;39156;51.176;6.738;2022-09-12T13:34:26;25.80;45.00
53268;DHT22;39156;51.176;6.738;2022-09-12T13:37:10;25.80;44.00
53268;DHT22;39156;51.176;6.738;2022-09-12T13:42:47;25.90;43.50
53268;DHT22;39156;51.176;6.738;2022-09-12T13:45:18;25.90;44.20
53268;DHT22;39156;51.176;6.738;2022-09-12T13:47:46;25.90;44.60
53268;DHT22;39156;51.176;6.738;2022-09-12T13:50:14;25.90;44.60
53268;DHT22;39156;51.176;6.738;2022-09-12T13:52:44;25.90;43.70
53268;DHT22;39156;51.176;6.738;2022-09-12T13:55:22;25.90;44.50
53268;DHT22;39156;51.176;6.738;2022-09-12T13:58:02;25.90;44.90
53268;DHT22;39156;51.176;6.738;2022-09-12T14:00:29;25.90;46.30
53268;DHT22;39156;51.176;6.738;2022-09-12T14:02:57;25.90;44.80
53268;DHT22;39156;51.176;6.738;2022-09-12T14:05:48;25.90;44.30
53268;DHT22;39156;51.176;6.738;2022-09-12T14:08:19;26.00;44.20
53268;DHT22;39156;51.176;6.738;2022-09-12T14:10:48;26.00;43.80
53268;DHT22;39156;51.176;6.738;2022-09-12T14:13:18;25.90;42.70
53268;DHT22;39156;51.176;6.738;2022-09-12T14:15:46;26.00;44.20
53268;DHT22;39156;51.176;6.738;2022-09-12T14:18:23;26.00;44.70
53268;DHT22;39156;51.176;6.738;2022-09-12T14:20:48;26.00;43.70
53268;DHT22;39156;51.176;6.738;2022-09-12T14:25:45;26.00;44.40
53268;DHT22;39156;51.176;6.738;2022-09-12T14:28:12;26.00;44.60
53268;DHT22;39156;51.176;6.738;2022-09-12T14:30:39;26.00;44.80
53268;DHT22;39156;51.176;6.738;2022-09-12T14:35:37;26.00;43.30
53268;DHT22;39156;51.176;6.738;2022-09-12T14:38:07;26.00;44.30
53268;DHT22;39156;51.176;6.738;2022-09-12T14:40:42;26.00;46.50
53268;DHT22;39156;51.176;6.738;2022-09-12T14:43:28;26.00;46.30
53268;DHT22;39156;51.176;6.738;2022-09-12T14:46:05;26.00;45.80
53268;DHT22;39156;51.176;6.738;2022-09-12T14:48:34;26.00;44.30
53268;DHT22;39156;51.176;6.738;2022-09-12T14:51:00;26.00;43.90
53268;DHT22;39156;51.176;6.738;2022-09-12T14:53:32;25.90;44.50
53268;DHT22;39156;51.176;6.738;2022-09-12T14:56:06;25.90;44.50
53268;DHT22;39156;51.176;6.738;2022-09-12T14:58:36;25.90;44.60
53268;DHT22;39156;51.176;6.738;2022-09-12T15:06:20;26.00;43.60
53268;DHT22;39156;51.176;6.738;2022-09-12T15:08:47;26.00;43.50
53268;DHT22;39156;51.176;6.738;2022-09-12T15:11:13;26.00;44.80
53268;DHT22;39156;51.176;6.738;2022-09-12T15:13:39;26.00;44.70
53268;DHT22;39156;51.176;6.738;2022-09-12T15:16:06;25.90;43.20
53268;DHT22;39156;51.176;6.738;2022-09-12T15:18:33;25.90;44.40
53268;DHT22;39156;51.176;6.738;2022-09-12T15:21:03;25.90;44.20
53268;DHT22;39156;51.176;6.738;2022-09-12T15:23:31;25.90;44.10
53268;DHT22;39156;51.176;6.738;2022-09-12T15:26:00;25.80;43.80
53268;DHT22;39156;51.176;6.738;2022-09-12T15:28:26;25.80;43.50
53268;DHT22;39156;51.176;6.738;2022-09-12T15:30:53;25.80;43.10
53268;DHT22;39156;51.176;6.738;2022-09-12T15:33:21;25.70;43.10
53268;DHT22;39156;51.176;6.738;2022-09-12T15:35:48;25.80;44.50
53268;DHT22;39156;51.176;6.738;2022-09-12T15:38:17;25.70;44.70
53268;DHT22;39156;51.176;6.738;2022-09-12T15:40:48;25.70;43.90
53268;DHT22;39156;51.176;6.738;2022-09-12T15:43:18;25.60;44.10
53268;DHT22;39156;51.176;6.738;2022-09-12T15:45:44;25.60;44.40
53268;DHT22;39156;51.176;6.738;2022-09-12T15:48:10;25.60;44.40
53268;DHT22;39156;51.176;6.738;2022-09-12T15:50:36;25.60;44.70
53268;DHT22;39156;51.176;6.738;2022-09-12T15:53:01;25.60;44.30
53268;DHT22;39156;51.176;6.738;2022-09-12T15:55:28;25.60;44.30
53268;DHT22;39156;51.176;6.738;2022-09-12T15:57:54;25.60;43.70
53268;DHT22;39156;51.176;6.738;2022-09-12T16:00:20;25.60;44.00
53268;DHT22;39156;51.176;6.738;2022-09-12T16:02:48;25.60;44.30
53268;DHT22;39156;51.176;6.738;2022-09-12T16:05:17;25.50;43.90
53268;DHT22;39156;51.176;6.738;2022-09-12T16:07:44;25.50;44.00
53268;DHT22;39156;51.176;6.738;2022-09-12T16:10:14;25.40;43.60
53268;DHT22;39156;51.176;6.738;2022-09-12T16:12:41;25.40;44.20
53268;DHT22;39156;51.176;6.738;2022-09-12T16:15:10;25.40;44.50
53268;DHT22;39156;51.176;6.738;2022-09-12T16:17:36;25.40;44.50
53268;DHT22;39156;51.176;6.738;2022-09-12T16:20:02;25.40;44.70
53268;DHT22;39156;51.176;6.738;2022-09-12T16:22:28;25.40;45.30
53268;DHT22;39156;51.176;6.738;2022-09-12T16:24:54;25.40;45.00
53268;DHT22;39156;51.176;6.738;2022-09-12T16:27:20;25.40;44.90
53268;DHT22;39156;51.176;6.738;2022-09-12T16:29:45;25.40;44.90
53268;DHT22;39156;51.176;6.738;2022-09-12T16:32:11;25.40;44.90
53268;DHT22;39156;51.176;6.738;2022-09-12T16:34:36;25.40;44.90
53268;DHT22;39156;51.176;6.738;2022-09-12T16:37:02;25.40;44.80
53268;DHT22;39156;51.176;6.738;2022-09-12T16:39:28;25.40;45.00
53268;DHT22;39156;51.176;6.738;2022-09-12T16:41:53;25.40;44.40
53268;DHT22;39156;51.176;6.738;2022-09-12T16:44:19;25.40;44.00
53268;DHT22;39156;51.176;6.738;2022-09-12T16:46:44;25.40;43.90
53268;DHT22;39156;51.176;6.738;2022-09-12T16:49:10;25.30;44.40
53268;DHT22;39156;51.176;6.738;2022-09-12T16:51:36;25.30;44.10
53268;DHT22;39156;51.176;6.738;2022-09-12T16:54:02;25.30;44.70
53268;DHT22;39156;51.176;6.738;2022-09-12T16:56:28;25.30;44.00
53268;DHT22;39156;51.176;6.738;2022-09-12T16:58:54;25.30;44.40
53268;DHT22;39156;51.176;6.738;2022-09-12T17:01:21;25.20;44.10
53268;DHT22;39156;51.176;6.738;2022-09-12T17:03:51;25.20;44.40
53268;DHT22;39156;51.176;6.738;2022-09-12T17:06:17;25.20;44.60
53268;DHT22;39156;51.176;6.738;2022-09-12T17:08:45;25.20;44.90
53268;DHT22;39156;51.176;6.738;2022-09-12T17:11:13;25.10;45.00
53268;DHT22;39156;51.176;6.738;2022-09-12T17:13:41;25.10;45.10
53268;DHT22;39156;51.176;6.738;2022-09-12T17:16:11;25.10;45.00
53268;DHT22;39156;51.176;6.738;2022-09-12T17:18:37;25.00;45.10
53268;DHT22;39156;51.176;6.738;2022-09-12T17:21:04;25.00;44.90
53268;DHT22;39156;51.176;6.738;2022-09-12T17:23:30;25.00;45.10
53268;DHT22;39156;51.176;6.738;2022-09-12T17:25:56;25.00;45.30
53268;DHT22;39156;51.176;6.738;2022-09-12T17:28:22;24.90;45.20
53268;DHT22;39156;51.176;6.738;2022-09-12T17:30:57;24.80;45.20
53268;DHT22;39156;51.176;6.738;2022-09-12T17:33:27;24.80;45.20
53268;DHT22;39156;51.176;6.738;2022-09-12T17:35:53;24.70;45.30
53268;DHT22;39156;51.176;6.738;2022-09-12T17:38:19;24.60;45.30
53268;DHT22;39156;51.176;6.738;2022-09-12T17:40:45;24.60;45.50
53268;DHT22;39156;51.176;6.738;2022-09-12T17:43:11;24.50;45.50
53268;DHT22;39156;51.176;6.738;2022-09-12T17:45:37;24.40;45.40